createdAt,value
2017-11-30T00:00:08.369Z,2.3
2017-11-30T00:05:23.585Z,2.3
2017-11-30T00:10:33.655Z,2.3
2017-11-30T00:15:05.487Z,2.2
2017-11-30T00:20:07.475Z,2.2
2017-11-30T00:25:07.682Z,2.2
2017-11-30T00:30:13.227Z,2.2
2017-11-30T00:35:03.231Z,2.2
2017-11-30T00:40:03.302Z,2.3
2017-11-30T00:45:02.902Z,2.2
2017-11-30T00:50:02.434Z,2.2
2017-11-30T00:55:07.652Z,2.2
2017-11-30T01:00:05.611Z,2.2
2017-11-30T01:05:10.879Z,2.2
2017-11-30T01:10:08.417Z,2.2
2017-11-30T01:15:02.984Z,2.2
2017-11-30T01:20:02.457Z,2.2
2017-11-30T01:25:25.393Z,2.1
2017-11-30T01:30:23.377Z,2
2017-11-30T01:35:13.329Z,2
2017-11-30T01:40:13.335Z,2
2017-11-30T01:45:02.787Z,2
2017-11-30T01:50:38.626Z,1.9
2017-11-30T01:55:33.692Z,1.9
2017-11-30T02:00:30.778Z,2
2017-11-30T02:05:02.949Z,2
2017-11-30T02:10:25.687Z,1.9
2017-11-30T02:15:02.487Z,1.9
2017-11-30T02:20:08.105Z,1.7
2017-11-30T02:25:03.051Z,1.7
2017-11-30T02:30:05.077Z,1.6
2017-11-30T02:35:10.090Z,1.5
2017-11-30T02:40:12.701Z,1.4
2017-11-30T02:45:30.860Z,1.4
2017-11-30T02:50:07.536Z,1.4
2017-11-30T02:55:02.612Z,1.4
2017-11-30T03:00:20.678Z,1.3
2017-11-30T03:05:13.183Z,1.3
2017-11-30T03:10:05.476Z,1.1
2017-11-30T03:15:25.286Z,1.1
2017-11-30T03:20:23.268Z,1.1
2017-11-30T03:25:23.226Z,1.1
2017-11-30T03:30:05.111Z,1.1
2017-11-30T03:35:30.274Z,1.1
2017-11-30T03:40:05.130Z,1
2017-11-30T03:45:28.309Z,1.1
2017-11-30T03:50:05.897Z,1.2
2017-11-30T03:55:22.645Z,1.1
2017-11-30T04:05:05.509Z,1.1
2017-11-30T04:10:07.949Z,1.2
2017-11-30T04:15:05.010Z,1.3
2017-11-30T04:20:23.157Z,1.3
2017-11-30T04:25:02.989Z,1.3
2017-11-30T04:30:13.450Z,1.2
2017-11-30T04:35:07.554Z,1.2
2017-11-30T04:40:04.969Z,1.2
2017-11-30T04:45:02.970Z,1.2
2017-11-30T04:50:33.709Z,1.3
2017-11-30T04:55:02.508Z,1.4
2017-11-30T05:00:15.537Z,1.3
2017-11-30T05:05:08.068Z,1.5
2017-11-30T05:10:05.502Z,1.5
2017-11-30T05:15:07.638Z,1.5
2017-11-30T05:20:03.020Z,1.5
2017-11-30T05:25:03.073Z,1.5
2017-11-30T05:30:02.519Z,1.5
2017-11-30T05:35:02.620Z,1.6
2017-11-30T05:40:15.262Z,1.6
2017-11-30T05:45:08.231Z,1.6
2017-11-30T05:50:05.200Z,1.6
2017-11-30T05:55:10.426Z,1.6
2017-11-30T06:00:03.247Z,1.6
2017-11-30T06:05:17.599Z,1.7
2017-11-30T06:10:12.527Z,1.7
2017-11-30T06:15:05.597Z,1.7
2017-11-30T06:20:12.674Z,1.7
2017-11-30T06:25:20.397Z,1.8
2017-11-30T06:30:08.232Z,1.8
2017-11-30T06:35:21.036Z,1.8
2017-11-30T06:40:03.340Z,1.8
2017-11-30T06:45:13.137Z,1.8
2017-11-30T06:50:04.936Z,1.7
2017-11-30T06:55:07.613Z,1.7
2017-11-30T07:00:05.506Z,1.7
2017-11-30T07:05:33.490Z,1.7
2017-11-30T07:10:08.126Z,1.8
2017-11-30T07:15:05.290Z,1.8
2017-11-30T07:20:08.275Z,1.8
2017-11-30T07:25:05.909Z,1.8
2017-11-30T07:30:05.361Z,1.8
2017-11-30T07:35:10.609Z,1.9
2017-11-30T07:40:08.065Z,1.9
2017-11-30T07:45:05.198Z,1.9
2017-11-30T07:50:28.508Z,1.9
2017-11-30T07:55:03.220Z,1.9
2017-11-30T08:00:02.791Z,1.9
2017-11-30T08:05:07.877Z,1.8
2017-11-30T08:10:15.508Z,1.8
2017-11-30T08:15:10.055Z,1.7
2017-11-30T08:20:33.364Z,1.7
2017-11-30T08:25:20.823Z,1.7
2017-11-30T08:30:02.638Z,1.7
2017-11-30T08:35:07.819Z,1.8
2017-11-30T08:40:28.104Z,1.9
2017-11-30T08:45:04.971Z,1.9
2017-11-30T08:50:18.145Z,2
2017-11-30T08:55:05.647Z,2.2
2017-11-30T09:00:38.102Z,2.2
2017-11-30T09:05:07.792Z,0
2017-11-30T09:10:02.780Z,2.4
2017-11-30T09:15:04.998Z,2.4
2017-11-30T09:20:05.552Z,2.5
2017-11-30T09:25:13.250Z,2.6
2017-11-30T09:30:07.656Z,2.7
2017-11-30T09:35:02.910Z,2.7
2017-11-30T09:40:02.867Z,2.6
2017-11-30T09:45:05.135Z,2.9
2017-11-30T09:50:13.323Z,2.9
2017-11-30T09:55:02.448Z,2.9
2017-11-30T10:00:08.003Z,3.1
2017-11-30T10:05:03.229Z,3.1
2017-11-30T10:10:05.845Z,3.4
2017-11-30T10:15:18.232Z,3.4
2017-11-30T10:20:02.566Z,3.4
2017-11-30T10:25:38.227Z,3.5
2017-11-30T10:30:10.887Z,3.5
2017-11-30T10:35:12.700Z,3.6
2017-11-30T10:40:02.588Z,3.6
2017-11-30T10:45:18.539Z,3.8
2017-11-30T10:50:02.956Z,3.8
2017-11-30T10:55:10.736Z,3.9
2017-11-30T11:00:05.202Z,4.1
2017-11-30T11:05:10.571Z,4.2
2017-11-30T11:10:03.046Z,4.2
2017-11-30T11:15:10.354Z,4.1
2017-11-30T11:20:05.798Z,4.1
2017-11-30T11:25:10.132Z,4.1
2017-11-30T11:30:03.080Z,4.1
2017-11-30T11:35:12.559Z,4.2
2017-11-30T11:40:10.053Z,4.2
2017-11-30T11:45:28.461Z,4.1
2017-11-30T11:50:12.959Z,4.1
2017-11-30T11:55:13.117Z,4.2
2017-11-30T12:05:05.357Z,4.3
2017-11-30T12:10:20.646Z,4.3
2017-11-30T12:15:07.714Z,4.3
2017-11-30T12:20:03.246Z,4.3
2017-11-30T12:25:20.175Z,4
2017-11-30T12:30:23.201Z,4
2017-11-30T12:35:23.452Z,4
2017-11-30T12:40:03.312Z,4
2017-11-30T12:45:15.673Z,4.1
2017-11-30T12:50:05.077Z,4.1
2017-11-30T12:55:07.884Z,4.1
2017-11-30T13:00:31.105Z,4.2
2017-11-30T13:05:02.510Z,4.2
2017-11-30T13:10:05.115Z,4.5
2017-11-30T13:15:38.710Z,4.2
2017-11-30T13:20:02.805Z,4.2
2017-11-30T13:25:18.265Z,3.6
2017-11-30T13:30:07.703Z,3.6
2017-11-30T13:35:08.178Z,3.3
2017-11-30T13:40:02.804Z,3.3
2017-11-30T13:45:07.593Z,3
2017-11-30T13:50:10.529Z,3
2017-11-30T13:55:10.728Z,3
2017-11-30T14:00:05.162Z,2.9
2017-11-30T14:05:07.914Z,2.8
2017-11-30T14:10:02.884Z,2.8
2017-11-30T14:15:35.447Z,2.8
2017-11-30T14:20:20.683Z,2.8
2017-11-30T14:25:10.769Z,2.7
2017-11-30T14:30:30.488Z,2.6
2017-11-30T14:35:02.852Z,2.6
2017-11-30T14:40:28.162Z,2.6
2017-11-30T14:45:07.563Z,2.6
2017-11-30T14:50:13.116Z,2.4
2017-11-30T14:55:03.173Z,2.5
2017-11-30T15:00:02.623Z,2.4
2017-11-30T15:05:07.862Z,2.1
2017-11-30T15:15:04.936Z,2.1
2017-11-30T15:20:10.483Z,2.1
2017-11-30T15:25:20.718Z,2.1
2017-11-30T15:30:07.535Z,2.1
2017-11-30T15:35:32.903Z,2.1
2017-11-30T15:40:02.568Z,2.1
2017-11-30T15:45:03.123Z,2.1
2017-11-30T15:50:07.685Z,2.1
2017-11-30T15:55:07.901Z,2.2
2017-11-30T16:05:03.327Z,2.1
2017-11-30T16:10:04.964Z,2.2
2017-11-30T16:15:10.528Z,2.1
2017-11-30T16:20:13.493Z,2.1
2017-11-30T16:25:05.085Z,2.2
2017-11-30T16:30:05.495Z,2.2
2017-11-30T16:35:05.604Z,2.2
2017-11-30T16:40:05.643Z,2.2
2017-11-30T16:45:10.303Z,2.2
2017-11-30T16:50:05.707Z,2.2
2017-11-30T16:55:05.898Z,2.2
2017-11-30T17:00:05.345Z,2.1
2017-11-30T17:05:08.060Z,2.2
2017-11-30T17:10:02.995Z,2.2
2017-11-30T17:20:15.785Z,2.1
2017-11-30T17:25:20.986Z,2.1
2017-11-30T17:30:02.790Z,2.1
2017-11-30T17:35:03.016Z,2.1
2017-11-30T17:40:05.544Z,2.1
2017-11-30T17:45:02.676Z,2.1
2017-11-30T17:50:03.108Z,2.1
2017-11-30T17:55:13.460Z,2.1
2017-11-30T18:00:02.828Z,2.2
2017-11-30T18:05:13.172Z,2.2
2017-11-30T18:10:08.075Z,2.2
2017-11-30T18:15:05.201Z,2.2
2017-11-30T18:20:05.677Z,2.2
2017-11-30T18:25:02.418Z,2.2
2017-11-30T18:30:20.581Z,2.2
2017-11-30T18:35:03.147Z,2.2
2017-11-30T18:40:03.171Z,2.2
2017-11-30T18:45:05.435Z,2.3
2017-11-30T18:50:02.594Z,2.3
2017-11-30T18:55:05.218Z,2.3
2017-11-30T19:00:05.691Z,2.3
2017-11-30T19:05:15.071Z,2.3
2017-11-30T19:10:05.895Z,2.3
2017-11-30T19:15:10.693Z,2.3
2017-11-30T19:20:10.174Z,2.3
2017-11-30T19:25:15.507Z,2.3
2017-11-30T19:30:03.430Z,2.3
2017-11-30T19:35:02.581Z,2.2
2017-11-30T19:40:05.226Z,2.2
2017-11-30T19:45:05.888Z,2.2
2017-11-30T19:50:05.388Z,2.3
2017-11-30T19:55:03.067Z,2.3
2017-11-30T20:00:07.665Z,2.3
2017-11-30T20:05:02.760Z,2.3
2017-11-30T20:15:02.435Z,2.3
2017-11-30T20:20:20.675Z,2.4
2017-11-30T20:25:03.126Z,2.4
2017-11-30T20:30:05.143Z,2.4
2017-11-30T20:35:07.904Z,2.4
2017-11-30T20:40:07.964Z,2.4
2017-11-30T20:45:02.524Z,2.4
2017-11-30T20:50:05.598Z,2.4
2017-11-30T20:55:31.054Z,2.4
2017-11-30T21:00:02.722Z,2.4
2017-11-30T21:05:08.038Z,2.3
2017-11-30T21:10:05.471Z,2.3
2017-11-30T21:15:02.653Z,2.3
2017-11-30T21:20:05.739Z,2.3
2017-11-30T21:25:07.482Z,2.2
2017-11-30T21:30:05.411Z,2.1
2017-11-30T21:35:23.302Z,2
2017-11-30T21:40:25.837Z,1.9
2017-11-30T21:45:07.707Z,1.8
2017-11-30T21:50:08.158Z,1.7
2017-11-30T21:55:13.424Z,1.7
2017-11-30T22:00:12.879Z,1.7
2017-11-30T22:05:05.481Z,1.6
2017-11-30T22:10:08.016Z,1.6
2017-11-30T22:15:20.339Z,1.5
2017-11-30T22:20:08.163Z,1.5
2017-11-30T22:25:15.915Z,1.5
2017-11-30T22:30:10.422Z,1.4
2017-11-30T22:35:07.992Z,1.4
2017-11-30T22:40:18.070Z,1.3
2017-11-30T22:45:05.195Z,1.2
2017-11-30T22:50:38.557Z,1
2017-11-30T22:55:03.272Z,1
2017-11-30T23:00:05.402Z,0.8
2017-11-30T23:05:05.465Z,0.7
2017-11-30T23:10:05.444Z,0.6
2017-11-30T23:15:02.596Z,0.6
2017-11-30T23:20:15.639Z,0.4
2017-11-30T23:25:03.138Z,0.4
2017-11-30T23:30:32.985Z,0.2
2017-11-30T23:35:05.179Z,0.2
2017-11-30T23:40:22.909Z,0
2017-11-30T23:45:03.176Z,0
2017-11-30T23:50:07.646Z,0
2017-11-30T23:55:10.222Z,0
